createdAt,value
2023-01-30T00:00:36.808Z,5.47
2023-01-30T00:01:35.952Z,5.44
2023-01-30T00:02:35.285Z,5.44
2023-01-30T00:03:35.444Z,5.44
2023-01-30T00:05:35.100Z,5.44
2023-01-30T00:06:35.516Z,5.44
2023-01-30T00:07:35.135Z,5.4
2023-01-30T00:08:35.726Z,5.4
2023-01-30T00:09:36.148Z,5.4
2023-01-30T00:10:35.736Z,5.4
2023-01-30T00:11:35.544Z,5.4
2023-01-30T00:12:35.772Z,5.4
2023-01-30T00:13:36.133Z,5.4
2023-01-30T00:14:35.386Z,5.4
2023-01-30T00:15:35.153Z,5.4
2023-01-30T00:16:36.063Z,5.4
2023-01-30T00:17:35.580Z,5.4
2023-01-30T00:18:37.025Z,5.4
2023-01-30T00:19:36.102Z,5.4
2023-01-30T00:20:35.099Z,5.4
2023-01-30T00:21:36.015Z,5.4
2023-01-30T00:22:35.406Z,5.4
2023-01-30T00:23:35.308Z,5.4
2023-01-30T00:25:35.623Z,5.4
2023-01-30T00:26:35.567Z,5.4
2023-01-30T00:27:35.946Z,5.44
2023-01-30T00:28:35.235Z,5.44
2023-01-30T00:29:35.660Z,5.4
2023-01-30T00:30:35.729Z,5.4
2023-01-30T00:31:35.760Z,5.4
2023-01-30T00:32:35.163Z,5.44
2023-01-30T00:33:36.087Z,5.44
2023-01-30T00:34:35.849Z,5.44
2023-01-30T00:36:35.085Z,5.44
2023-01-30T00:37:35.130Z,5.44
2023-01-30T00:39:36.349Z,5.44
2023-01-30T00:40:35.627Z,5.44
2023-01-30T00:41:36.264Z,5.44
2023-01-30T00:42:35.028Z,5.44
2023-01-30T00:43:36.400Z,5.44
2023-01-30T00:44:35.252Z,5.44
2023-01-30T00:45:35.763Z,5.47
2023-01-30T00:46:35.461Z,5.44
2023-01-30T00:47:35.987Z,5.47
2023-01-30T00:48:35.072Z,5.47
2023-01-30T00:49:35.296Z,5.47
2023-01-30T00:50:35.892Z,5.47
2023-01-30T00:51:35.897Z,5.51
2023-01-30T00:52:35.881Z,5.47
2023-01-30T00:53:36.210Z,5.47
2023-01-30T00:54:35.837Z,5.51
2023-01-30T00:55:36.132Z,5.51
2023-01-30T00:56:36.251Z,5.51
2023-01-30T00:57:36.658Z,5.51
2023-01-30T00:58:35.765Z,5.51
2023-01-30T00:59:36.161Z,5.51
2023-01-30T01:00:36.295Z,5.51
2023-01-30T01:01:36.298Z,5.51
2023-01-30T01:02:35.975Z,5.51
2023-01-30T01:03:35.476Z,5.51
2023-01-30T01:04:36.083Z,5.51
2023-01-30T01:05:35.011Z,5.55
2023-01-30T01:06:35.869Z,5.55
2023-01-30T01:07:35.085Z,5.55
2023-01-30T01:08:35.407Z,5.55
2023-01-30T01:09:33.861Z,5.55
2023-01-30T01:10:35.722Z,5.55
2023-01-30T01:11:35.652Z,5.55
2023-01-30T01:12:35.434Z,5.55
2023-01-30T01:13:35.445Z,5.55
2023-01-30T01:14:35.636Z,5.55
2023-01-30T01:15:35.886Z,5.55
2023-01-30T01:16:35.974Z,5.55
2023-01-30T01:17:35.679Z,5.55
2023-01-30T01:18:35.262Z,5.55
2023-01-30T01:19:35.007Z,5.59
2023-01-30T01:20:35.867Z,5.59
2023-01-30T01:21:35.722Z,5.59
2023-01-30T01:22:36.218Z,5.59
2023-01-30T01:23:35.082Z,5.59
2023-01-30T01:24:35.302Z,5.59
2023-01-30T01:25:35.710Z,5.59
2023-01-30T01:26:36.020Z,5.59
2023-01-30T01:27:35.725Z,5.59
2023-01-30T01:28:36.137Z,5.59
2023-01-30T01:29:35.325Z,5.62
2023-01-30T01:30:35.841Z,5.62
2023-01-30T01:31:35.991Z,5.66
2023-01-30T01:32:35.334Z,5.66
2023-01-30T01:33:34.545Z,5.66
2023-01-30T01:34:35.667Z,5.66
2023-01-30T01:35:35.057Z,5.66
2023-01-30T01:36:52.649Z,5.66
2023-01-30T01:37:36.101Z,5.66
2023-01-30T01:38:35.490Z,5.66
2023-01-30T01:39:35.800Z,5.66
2023-01-30T01:40:35.492Z,5.66
2023-01-30T01:41:34.224Z,5.66
2023-01-30T01:42:35.236Z,5.66
2023-01-30T01:43:36.038Z,5.66
2023-01-30T01:44:35.552Z,5.66
2023-01-30T01:45:35.423Z,5.7
2023-01-30T01:47:35.267Z,5.7
2023-01-30T01:48:35.014Z,5.7
2023-01-30T01:49:35.380Z,5.7
2023-01-30T01:50:36.083Z,5.7
2023-01-30T01:51:35.881Z,5.7
2023-01-30T01:52:34.999Z,5.7
2023-01-30T01:53:35.021Z,5.7
2023-01-30T01:54:36.002Z,5.7
2023-01-30T01:55:35.337Z,5.66
2023-01-30T01:56:35.353Z,5.66
2023-01-30T01:57:35.519Z,5.66
2023-01-30T01:58:35.050Z,5.7
2023-01-30T02:00:35.567Z,5.66
2023-01-30T02:01:37.586Z,5.66
2023-01-30T02:02:35.281Z,5.66
2023-01-30T02:03:35.455Z,5.66
2023-01-30T02:04:35.960Z,5.66
2023-01-30T02:05:35.551Z,5.66
2023-01-30T02:06:35.787Z,5.66
2023-01-30T02:07:35.055Z,5.66
2023-01-30T02:08:35.786Z,5.66
2023-01-30T02:09:36.526Z,5.66
2023-01-30T02:10:35.042Z,5.66
2023-01-30T02:11:35.819Z,5.66
2023-01-30T02:12:36.660Z,5.66
2023-01-30T02:13:35.521Z,5.66
2023-01-30T02:14:35.100Z,5.66
2023-01-30T02:15:35.929Z,5.62
2023-01-30T02:16:35.736Z,5.62
2023-01-30T02:17:35.931Z,5.62
2023-01-30T02:18:35.328Z,5.62
2023-01-30T02:19:35.654Z,5.62
2023-01-30T02:20:35.148Z,5.62
2023-01-30T02:21:35.098Z,5.62
2023-01-30T02:22:35.349Z,5.62
2023-01-30T02:23:34.989Z,5.62
2023-01-30T02:24:35.781Z,5.62
2023-01-30T02:25:35.425Z,5.62
2023-01-30T02:26:36.026Z,5.66
2023-01-30T02:27:35.227Z,5.66
2023-01-30T02:28:35.806Z,5.66
2023-01-30T02:29:35.716Z,5.66
2023-01-30T02:30:35.756Z,5.66
2023-01-30T02:31:34.576Z,5.66
2023-01-30T02:32:36.246Z,5.7
2023-01-30T02:33:35.643Z,5.7
2023-01-30T02:34:35.226Z,5.7
2023-01-30T02:35:36.339Z,5.7
2023-01-30T02:36:36.398Z,5.74
2023-01-30T02:37:35.599Z,5.7
2023-01-30T02:38:35.563Z,5.74
2023-01-30T02:39:36.203Z,5.74
2023-01-30T02:40:35.478Z,5.7
2023-01-30T02:41:35.826Z,5.74
2023-01-30T02:42:35.795Z,5.74
2023-01-30T02:43:36.509Z,5.74
2023-01-30T02:44:34.270Z,5.74
2023-01-30T02:45:35.708Z,5.74
2023-01-30T02:46:34.682Z,5.74
2023-01-30T02:47:35.054Z,5.74
2023-01-30T02:48:35.670Z,5.74
2023-01-30T02:49:36.362Z,5.74
2023-01-30T02:50:36.829Z,5.74
2023-01-30T02:51:35.349Z,5.78
2023-01-30T02:52:35.055Z,5.74
2023-01-30T02:55:35.700Z,5.74
2023-01-30T02:56:35.172Z,5.74
2023-01-30T02:57:35.484Z,5.74
2023-01-30T02:58:35.275Z,5.74
2023-01-30T02:59:35.930Z,5.74
2023-01-30T03:00:35.016Z,5.74
2023-01-30T03:01:35.482Z,5.74
2023-01-30T03:02:35.040Z,5.74
2023-01-30T03:03:36.275Z,5.74
2023-01-30T03:04:35.321Z,5.7
2023-01-30T03:05:35.015Z,5.7
2023-01-30T03:06:35.968Z,5.7
2023-01-30T03:07:35.343Z,5.66
2023-01-30T03:08:35.487Z,5.66
2023-01-30T03:09:35.216Z,5.66
2023-01-30T03:10:35.983Z,5.66
2023-01-30T03:11:36.600Z,5.62
2023-01-30T03:12:35.394Z,5.66
2023-01-30T03:13:35.606Z,5.66
2023-01-30T03:14:35.387Z,5.62
2023-01-30T03:15:35.077Z,5.62
2023-01-30T03:16:35.212Z,5.62
2023-01-30T03:17:35.151Z,5.62
2023-01-30T03:18:35.518Z,5.62
2023-01-30T03:19:35.674Z,5.62
2023-01-30T03:20:35.455Z,5.62
2023-01-30T03:21:35.260Z,5.62
2023-01-30T03:22:36.149Z,5.62
2023-01-30T03:23:35.489Z,5.59
2023-01-30T03:24:34.218Z,5.62
2023-01-30T03:25:36.384Z,5.62
2023-01-30T03:26:36.110Z,5.62
2023-01-30T03:27:35.396Z,5.62
2023-01-30T03:28:35.478Z,5.66
2023-01-30T03:29:36.712Z,5.66
2023-01-30T03:30:36.162Z,5.66
2023-01-30T03:31:36.021Z,5.66
2023-01-30T03:32:35.312Z,5.66
2023-01-30T03:33:35.207Z,5.66
2023-01-30T03:34:35.100Z,5.7
2023-01-30T03:35:36.439Z,5.7
2023-01-30T03:36:35.839Z,5.7
2023-01-30T03:37:36.162Z,5.7
2023-01-30T03:38:35.951Z,5.7
2023-01-30T03:39:35.565Z,5.74
2023-01-30T03:40:35.866Z,5.74
2023-01-30T03:41:35.013Z,5.74
2023-01-30T03:42:35.676Z,5.74
2023-01-30T03:43:35.615Z,5.78
2023-01-30T03:44:35.543Z,5.78
2023-01-30T03:45:36.014Z,5.78
2023-01-30T03:46:34.995Z,5.78
2023-01-30T03:47:35.009Z,5.78
2023-01-30T03:48:34.987Z,5.82
2023-01-30T03:49:35.004Z,5.82
2023-01-30T03:50:35.532Z,5.82
2023-01-30T03:51:34.981Z,5.82
2023-01-30T03:52:35.669Z,5.82
2023-01-30T03:53:35.637Z,5.82
2023-01-30T03:54:35.375Z,5.82
2023-01-30T03:55:35.831Z,5.86
2023-01-30T03:56:36.481Z,5.86
2023-01-30T03:57:35.157Z,5.86
2023-01-30T03:58:33.840Z,5.86
2023-01-30T03:59:35.208Z,5.86
2023-01-30T04:00:35.304Z,5.86
2023-01-30T04:01:35.939Z,5.86
2023-01-30T04:02:35.346Z,5.9
2023-01-30T04:03:35.511Z,5.86
2023-01-30T04:04:35.779Z,5.9
2023-01-30T04:05:36.555Z,5.9
2023-01-30T04:06:36.793Z,5.9
2023-01-30T04:07:35.637Z,5.9
2023-01-30T04:08:35.329Z,5.94
2023-01-30T04:09:34.119Z,5.94
2023-01-30T04:10:35.746Z,5.94
2023-01-30T04:11:35.885Z,5.9
2023-01-30T04:12:35.666Z,5.94
2023-01-30T04:13:35.694Z,5.94
2023-01-30T04:14:35.475Z,5.94
2023-01-30T04:15:35.977Z,5.98
2023-01-30T04:16:35.776Z,5.94
2023-01-30T04:17:34.972Z,5.98
2023-01-30T04:18:35.167Z,5.98
2023-01-30T04:19:34.977Z,5.98
2023-01-30T04:20:35.055Z,5.98
2023-01-30T04:21:35.037Z,5.98
2023-01-30T04:22:35.727Z,6.02
2023-01-30T04:23:35.329Z,6.02
2023-01-30T04:24:35.761Z,6.02
2023-01-30T04:25:35.116Z,6.06
2023-01-30T04:26:35.241Z,6.06
2023-01-30T04:27:35.394Z,6.06
2023-01-30T04:28:35.660Z,6.06
2023-01-30T04:29:35.623Z,6.1
2023-01-30T04:30:35.039Z,6.1
2023-01-30T04:31:35.032Z,6.1
2023-01-30T04:32:34.559Z,6.1
2023-01-30T04:33:34.983Z,6.14
2023-01-30T04:34:35.164Z,6.14
2023-01-30T04:35:35.669Z,6.14
2023-01-30T04:36:36.335Z,6.18
2023-01-30T04:37:35.412Z,6.14
2023-01-30T04:38:35.721Z,6.14
2023-01-30T04:39:36.043Z,6.18
2023-01-30T04:40:35.204Z,6.18
2023-01-30T04:41:35.142Z,6.18
2023-01-30T04:42:35.541Z,6.18
2023-01-30T04:43:35.147Z,6.22
2023-01-30T04:44:36.409Z,6.22
2023-01-30T04:45:35.860Z,6.27
2023-01-30T04:46:35.406Z,6.27
2023-01-30T04:47:35.198Z,6.27
2023-01-30T04:48:35.089Z,6.27
2023-01-30T04:49:35.599Z,6.31
2023-01-30T04:50:36.305Z,6.31
2023-01-30T04:51:35.091Z,6.31
2023-01-30T04:52:37.150Z,6.31
2023-01-30T04:53:36.142Z,6.31
2023-01-30T04:54:35.422Z,6.31
2023-01-30T04:55:35.762Z,6.31
2023-01-30T04:56:35.234Z,6.31
2023-01-30T04:57:35.548Z,6.35
2023-01-30T04:58:35.504Z,6.35
2023-01-30T04:59:35.518Z,6.35
2023-01-30T05:00:34.984Z,6.39
2023-01-30T05:01:35.090Z,6.39
2023-01-30T05:02:35.760Z,6.39
2023-01-30T05:03:36.391Z,6.39
2023-01-30T05:04:35.275Z,6.39
2023-01-30T05:05:35.200Z,6.44
2023-01-30T05:06:35.096Z,6.44
2023-01-30T05:07:35.616Z,6.44
2023-01-30T05:08:35.825Z,6.44
2023-01-30T05:09:35.666Z,6.44
2023-01-30T05:10:35.711Z,6.44
2023-01-30T05:11:35.560Z,6.44
2023-01-30T05:12:35.960Z,6.48
2023-01-30T05:13:35.537Z,6.44
2023-01-30T05:14:35.764Z,6.44
2023-01-30T05:15:33.930Z,6.44
2023-01-30T05:16:34.432Z,6.44
2023-01-30T05:17:35.563Z,6.44
2023-01-30T05:18:35.056Z,6.44
2023-01-30T05:19:35.084Z,6.44
2023-01-30T05:20:35.515Z,6.44
2023-01-30T05:21:35.327Z,6.44
2023-01-30T05:22:35.403Z,6.44
2023-01-30T05:23:35.592Z,6.44
2023-01-30T05:24:35.399Z,6.44
2023-01-30T05:25:34.968Z,6.44
2023-01-30T05:26:35.050Z,6.44
2023-01-30T05:27:36.663Z,6.44
2023-01-30T05:28:35.421Z,6.44
2023-01-30T05:29:35.333Z,6.44
2023-01-30T05:30:35.068Z,6.44
2023-01-30T05:31:35.655Z,6.44
2023-01-30T05:32:34.986Z,6.44
2023-01-30T05:33:35.352Z,6.44
2023-01-30T05:34:35.574Z,6.44
2023-01-30T05:35:34.979Z,6.44
2023-01-30T05:36:35.071Z,6.44
2023-01-30T05:37:35.177Z,6.44
2023-01-30T05:38:34.064Z,6.44
2023-01-30T05:39:35.010Z,6.39
2023-01-30T05:40:35.407Z,6.39
2023-01-30T05:41:35.223Z,6.39
2023-01-30T05:42:35.499Z,6.39
2023-01-30T05:43:34.951Z,6.39
2023-01-30T05:44:35.832Z,6.39
2023-01-30T05:45:36.146Z,6.39
2023-01-30T05:46:35.077Z,6.39
2023-01-30T05:47:35.759Z,6.39
2023-01-30T05:48:35.054Z,6.35
2023-01-30T05:49:35.364Z,6.35
2023-01-30T05:50:36.016Z,6.35
2023-01-30T05:51:34.979Z,6.35
2023-01-30T05:52:35.415Z,6.35
2023-01-30T05:53:35.378Z,6.35
2023-01-30T05:54:36.419Z,6.31
2023-01-30T05:55:35.230Z,6.31
2023-01-30T05:56:35.402Z,6.35
2023-01-30T05:57:35.723Z,6.35
2023-01-30T05:58:35.480Z,6.31
2023-01-30T05:59:35.012Z,6.31
2023-01-30T06:00:33.800Z,6.31
2023-01-30T06:01:35.434Z,6.31
2023-01-30T06:02:35.483Z,6.31
2023-01-30T06:03:35.162Z,6.31
2023-01-30T06:04:35.047Z,6.31
2023-01-30T06:05:35.991Z,6.31
2023-01-30T06:06:36.141Z,6.31
2023-01-30T06:07:35.478Z,6.31
2023-01-30T06:08:35.996Z,6.31
2023-01-30T06:09:35.011Z,6.31
2023-01-30T06:10:35.572Z,6.31
2023-01-30T06:11:36.010Z,6.31
2023-01-30T06:12:35.719Z,6.31
2023-01-30T06:13:36.233Z,6.31
2023-01-30T06:14:35.346Z,6.31
2023-01-30T06:15:35.841Z,6.31
2023-01-30T06:16:35.481Z,6.31
2023-01-30T06:17:36.249Z,6.31
2023-01-30T06:18:34.977Z,6.31
2023-01-30T06:19:35.077Z,6.31
2023-01-30T06:20:35.767Z,6.31
2023-01-30T06:21:36.608Z,6.31
2023-01-30T06:22:34.509Z,6.31
2023-01-30T06:23:33.786Z,6.31
2023-01-30T06:24:35.003Z,6.31
2023-01-30T06:25:35.216Z,6.31
2023-01-30T06:26:35.743Z,6.31
2023-01-30T06:27:33.875Z,6.31
2023-01-30T06:28:35.829Z,6.31
2023-01-30T06:29:35.210Z,6.31
2023-01-30T06:30:35.778Z,6.31
2023-01-30T06:31:35.277Z,6.31
2023-01-30T06:32:35.012Z,6.31
2023-01-30T06:33:35.950Z,6.31
2023-01-30T06:34:35.667Z,6.31
2023-01-30T06:35:35.545Z,6.31
2023-01-30T06:36:35.877Z,6.31
2023-01-30T06:37:35.195Z,6.31
2023-01-30T06:38:36.108Z,6.31
2023-01-30T06:39:36.196Z,6.31
2023-01-30T06:40:35.383Z,6.35
2023-01-30T06:41:35.804Z,6.31
2023-01-30T06:42:35.223Z,6.35
2023-01-30T06:43:35.986Z,6.35
2023-01-30T06:44:35.533Z,6.35
2023-01-30T06:45:35.696Z,6.35
2023-01-30T06:46:35.418Z,6.35
2023-01-30T06:47:36.247Z,6.35
2023-01-30T06:48:35.033Z,6.35
2023-01-30T06:49:36.248Z,6.35
2023-01-30T06:50:34.740Z,6.35
2023-01-30T06:51:35.065Z,6.35
2023-01-30T06:52:35.042Z,6.35
2023-01-30T06:53:35.202Z,6.35
2023-01-30T06:54:35.988Z,6.35
2023-01-30T06:55:35.465Z,6.35
2023-01-30T06:56:35.174Z,6.39
2023-01-30T06:57:35.386Z,6.39
2023-01-30T06:58:35.603Z,6.39
2023-01-30T06:59:35.078Z,6.39
2023-01-30T07:00:35.531Z,6.39
2023-01-30T07:01:36.106Z,6.39
2023-01-30T07:02:35.076Z,6.39
2023-01-30T07:03:36.042Z,6.39
2023-01-30T07:04:35.152Z,6.39
2023-01-30T07:05:35.917Z,6.39
2023-01-30T07:06:35.043Z,6.44
2023-01-30T07:07:35.767Z,6.44
2023-01-30T07:08:35.046Z,6.44
2023-01-30T07:09:35.014Z,6.44
2023-01-30T07:10:34.962Z,6.44
2023-01-30T07:11:35.489Z,6.44
2023-01-30T07:12:34.979Z,6.44
2023-01-30T07:13:35.218Z,6.44
2023-01-30T07:14:35.089Z,6.48
2023-01-30T07:15:36.232Z,6.44
2023-01-30T07:16:35.651Z,6.48
2023-01-30T07:17:35.529Z,6.48
2023-01-30T07:18:36.041Z,6.48
2023-01-30T07:19:35.428Z,6.48
2023-01-30T07:20:35.853Z,6.48
2023-01-30T07:21:35.046Z,6.48
2023-01-30T07:22:35.418Z,6.48
2023-01-30T07:23:35.048Z,6.48
2023-01-30T07:24:35.781Z,6.52
2023-01-30T07:25:34.989Z,6.52
2023-01-30T07:26:35.480Z,6.52
2023-01-30T07:27:35.274Z,6.52
2023-01-30T07:28:34.982Z,6.52
2023-01-30T07:29:34.989Z,6.52
2023-01-30T07:30:35.496Z,6.52
2023-01-30T07:31:35.775Z,6.57
2023-01-30T07:32:34.488Z,6.57
2023-01-30T07:33:35.833Z,6.57
2023-01-30T07:34:35.647Z,6.57
2023-01-30T07:35:35.852Z,6.57
2023-01-30T07:36:35.977Z,6.57
2023-01-30T07:37:35.773Z,6.57
2023-01-30T07:38:36.618Z,6.57
2023-01-30T07:39:35.556Z,6.61
2023-01-30T07:40:35.987Z,6.57
2023-01-30T07:41:35.158Z,6.57
2023-01-30T07:42:35.500Z,6.57
2023-01-30T07:43:35.287Z,6.57
2023-01-30T07:44:35.390Z,6.57
2023-01-30T07:45:35.291Z,6.57
2023-01-30T07:46:35.664Z,6.57
2023-01-30T07:47:36.236Z,6.57
2023-01-30T07:48:35.842Z,6.57
2023-01-30T07:49:34.953Z,6.57
2023-01-30T07:50:35.179Z,6.57
2023-01-30T07:51:35.292Z,6.57
2023-01-30T07:52:35.423Z,6.57
2023-01-30T07:53:36.365Z,6.57
2023-01-30T07:54:35.572Z,6.57
2023-01-30T07:55:35.465Z,6.57
2023-01-30T07:56:35.458Z,6.57
2023-01-30T07:57:35.569Z,6.57
2023-01-30T07:58:35.582Z,6.57
2023-01-30T07:59:35.799Z,6.52
2023-01-30T08:00:35.287Z,6.57
2023-01-30T08:01:35.459Z,6.52
2023-01-30T08:02:35.277Z,6.52
2023-01-30T08:03:36.238Z,6.52
2023-01-30T08:04:35.039Z,6.52
2023-01-30T08:05:35.937Z,6.57
2023-01-30T08:06:34.987Z,6.57
2023-01-30T08:07:35.012Z,6.52
2023-01-30T08:08:35.588Z,6.52
2023-01-30T08:09:35.034Z,6.52
2023-01-30T08:10:36.377Z,6.52
2023-01-30T08:11:35.164Z,6.52
2023-01-30T08:12:35.225Z,6.52
2023-01-30T08:13:35.876Z,6.52
2023-01-30T08:14:35.177Z,6.52
2023-01-30T08:15:36.392Z,6.52
2023-01-30T08:16:35.628Z,6.52
2023-01-30T08:17:34.178Z,6.52
2023-01-30T08:18:35.513Z,6.52
2023-01-30T08:19:36.014Z,6.52
2023-01-30T08:20:35.915Z,6.52
2023-01-30T08:21:35.310Z,6.52
2023-01-30T08:22:35.427Z,6.52
2023-01-30T08:23:35.615Z,6.52
2023-01-30T08:24:35.054Z,6.52
2023-01-30T08:25:35.059Z,6.57
2023-01-30T08:26:35.351Z,6.52
2023-01-30T08:27:36.279Z,6.52
2023-01-30T08:28:36.073Z,6.57
2023-01-30T08:29:35.673Z,6.57
2023-01-30T08:30:36.542Z,6.57
2023-01-30T08:31:35.758Z,6.57
2023-01-30T08:32:35.713Z,6.57
2023-01-30T08:33:35.105Z,6.57
2023-01-30T08:34:35.504Z,6.57
2023-01-30T08:35:35.476Z,6.52
2023-01-30T08:36:36.495Z,6.52
2023-01-30T08:37:36.544Z,6.57
2023-01-30T08:38:35.555Z,6.57
2023-01-30T08:39:37.255Z,6.57
2023-01-30T08:40:34.921Z,6.57
2023-01-30T08:41:35.247Z,6.57
2023-01-30T08:42:35.038Z,6.57
2023-01-30T08:43:35.037Z,6.57
2023-01-30T08:44:35.293Z,6.57
2023-01-30T08:45:34.939Z,6.57
2023-01-30T08:46:35.166Z,6.57
2023-01-30T08:47:35.348Z,6.61
2023-01-30T08:48:47.716Z,6.61
2023-01-30T08:49:35.898Z,6.61
2023-01-30T08:50:35.505Z,6.61
2023-01-30T08:51:35.778Z,6.61
2023-01-30T08:52:35.532Z,6.61
2023-01-30T08:53:36.442Z,6.61
2023-01-30T08:54:35.540Z,6.61
2023-01-30T08:55:35.238Z,6.61
2023-01-30T08:56:36.478Z,6.61
2023-01-30T08:57:35.032Z,6.61
2023-01-30T08:58:35.367Z,6.61
2023-01-30T08:59:35.665Z,6.61
2023-01-30T09:00:35.895Z,6.61
2023-01-30T09:01:34.620Z,6.61
2023-01-30T09:02:35.934Z,6.61
2023-01-30T09:03:36.403Z,6.61
2023-01-30T09:04:35.504Z,6.65
2023-01-30T09:05:35.542Z,6.65
2023-01-30T09:06:34.949Z,6.65
2023-01-30T09:07:35.610Z,6.65
2023-01-30T09:08:35.528Z,6.65
2023-01-30T09:09:35.705Z,6.65
2023-01-30T09:10:35.344Z,6.65
2023-01-30T09:11:35.653Z,6.7
2023-01-30T09:12:36.263Z,6.7
2023-01-30T09:13:35.995Z,6.7
2023-01-30T09:14:35.654Z,6.7
2023-01-30T09:15:35.769Z,6.7
2023-01-30T09:16:35.087Z,6.7
2023-01-30T09:17:35.675Z,6.74
2023-01-30T09:18:37.421Z,6.74
2023-01-30T09:19:35.586Z,6.74
2023-01-30T09:20:35.440Z,6.79
2023-01-30T09:21:35.387Z,6.83
2023-01-30T09:22:35.098Z,6.83
2023-01-30T09:23:33.743Z,6.83
2023-01-30T09:24:35.834Z,6.83
2023-01-30T09:25:35.195Z,6.83
2023-01-30T09:26:35.739Z,6.88
2023-01-30T09:27:35.650Z,6.83
2023-01-30T09:28:35.448Z,6.83
2023-01-30T09:29:35.386Z,6.83
2023-01-30T09:30:36.410Z,6.88
2023-01-30T09:31:35.530Z,6.88
2023-01-30T09:32:35.293Z,6.88
2023-01-30T09:33:35.483Z,6.92
2023-01-30T09:34:35.546Z,6.88
2023-01-30T09:35:36.287Z,6.88
2023-01-30T09:36:35.888Z,6.88
2023-01-30T09:37:35.248Z,6.88
2023-01-30T09:38:36.554Z,6.88
2023-01-30T09:39:35.496Z,6.88
2023-01-30T09:40:35.940Z,6.83
2023-01-30T09:41:35.524Z,6.83
2023-01-30T09:42:38.059Z,6.83
2023-01-30T09:43:35.656Z,6.88
2023-01-30T09:44:35.769Z,6.92
2023-01-30T09:45:34.915Z,6.97
2023-01-30T09:46:35.039Z,6.97
2023-01-30T09:47:34.985Z,7.02
2023-01-30T09:48:33.803Z,7.02
2023-01-30T09:49:36.108Z,7.06
2023-01-30T09:50:34.916Z,7.06
2023-01-30T09:51:35.550Z,7.06
2023-01-30T09:52:35.000Z,7.06
2023-01-30T09:53:34.991Z,7.11
2023-01-30T09:54:35.387Z,7.11
2023-01-30T09:55:36.296Z,7.11
2023-01-30T09:56:35.113Z,7.16
2023-01-30T09:57:35.116Z,7.16
2023-01-30T09:58:35.335Z,7.16
2023-01-30T09:59:35.534Z,7.16
2023-01-30T10:00:35.556Z,7.2
2023-01-30T10:01:35.469Z,7.25
2023-01-30T10:02:35.544Z,7.25
2023-01-30T10:03:35.534Z,7.25
2023-01-30T10:04:34.956Z,7.25
2023-01-30T10:05:35.043Z,7.3
2023-01-30T10:06:35.504Z,7.35
2023-01-30T10:07:36.217Z,7.3
2023-01-30T10:08:35.394Z,7.3
2023-01-30T10:09:35.095Z,7.3
2023-01-30T10:10:33.752Z,7.3
2023-01-30T10:11:36.260Z,7.3
2023-01-30T10:12:35.158Z,7.3
2023-01-30T10:13:35.728Z,7.35
2023-01-30T10:14:35.438Z,7.3
2023-01-30T10:15:35.579Z,7.3
2023-01-30T10:16:35.345Z,7.3
2023-01-30T10:17:35.375Z,7.3
2023-01-30T10:18:34.935Z,7.3
2023-01-30T10:19:36.789Z,7.25
2023-01-30T10:20:35.469Z,7.25
2023-01-30T10:21:36.189Z,7.3
2023-01-30T10:22:35.495Z,7.3
2023-01-30T10:23:34.937Z,7.3
2023-01-30T10:24:35.572Z,7.3
2023-01-30T10:25:35.584Z,7.3
2023-01-30T10:26:35.838Z,7.3
2023-01-30T10:27:36.223Z,7.3
2023-01-30T10:28:35.332Z,7.3
2023-01-30T10:29:35.316Z,7.3
2023-01-30T10:30:36.143Z,7.3
2023-01-30T10:31:35.955Z,7.35
2023-01-30T10:32:35.454Z,7.3
2023-01-30T10:33:34.079Z,7.25
2023-01-30T10:34:34.913Z,7.25
2023-01-30T10:35:35.081Z,7.3
2023-01-30T10:36:35.166Z,7.35
2023-01-30T10:37:36.122Z,7.3
2023-01-30T10:38:35.915Z,7.35
2023-01-30T10:39:36.913Z,7.3
2023-01-30T10:40:35.284Z,7.3
2023-01-30T10:41:36.411Z,7.3
2023-01-30T10:42:35.467Z,7.35
2023-01-30T10:43:35.635Z,7.35
2023-01-30T10:44:36.031Z,7.4
2023-01-30T10:45:36.646Z,7.4
2023-01-30T10:46:35.833Z,7.4
2023-01-30T10:47:46.555Z,7.35
2023-01-30T10:48:43.959Z,7.4
2023-01-30T10:49:35.010Z,7.4
2023-01-30T10:50:36.274Z,7.44
2023-01-30T10:51:35.387Z,7.44
2023-01-30T10:52:35.461Z,7.4
2023-01-30T10:53:36.395Z,7.4
2023-01-30T10:54:35.820Z,7.4
2023-01-30T10:55:37.978Z,7.4
2023-01-30T10:56:36.420Z,7.4
2023-01-30T10:57:34.913Z,7.4
2023-01-30T10:58:34.929Z,7.4
2023-01-30T10:59:35.782Z,7.49
2023-01-30T11:00:34.962Z,7.49
2023-01-30T11:01:35.540Z,7.44
2023-01-30T11:02:34.953Z,7.49
2023-01-30T11:03:34.990Z,7.44
2023-01-30T11:04:35.958Z,7.44
2023-01-30T11:05:35.032Z,7.44
2023-01-30T11:06:35.766Z,7.4
2023-01-30T11:07:35.766Z,7.35
2023-01-30T11:08:35.569Z,7.35
2023-01-30T11:09:35.354Z,7.35
2023-01-30T11:10:34.971Z,7.35
2023-01-30T11:11:36.473Z,7.35
2023-01-30T11:12:35.702Z,7.35
2023-01-30T11:13:34.920Z,7.35
2023-01-30T11:14:35.857Z,7.35
2023-01-30T11:15:35.013Z,7.35
2023-01-30T11:16:35.026Z,7.4
2023-01-30T11:17:36.237Z,7.4
2023-01-30T11:19:18.118Z,7.4
2023-01-30T11:19:35.536Z,7.35
2023-01-30T11:20:35.235Z,7.35
2023-01-30T11:21:43.951Z,7.35
2023-01-30T11:22:34.959Z,7.35
2023-01-30T11:23:35.263Z,7.35
2023-01-30T11:24:35.674Z,7.35
2023-01-30T11:25:35.782Z,7.35
2023-01-30T11:26:46.864Z,7.3
2023-01-30T11:27:35.103Z,7.3
2023-01-30T11:28:34.933Z,7.3
2023-01-30T11:29:35.647Z,7.3
2023-01-30T11:30:35.544Z,7.3
2023-01-30T11:31:41.554Z,7.3
2023-01-30T11:32:35.523Z,7.3
2023-01-30T11:33:34.899Z,7.3
2023-01-30T11:34:34.933Z,7.3
2023-01-30T11:35:35.827Z,7.3
2023-01-30T11:36:35.922Z,7.3
2023-01-30T11:37:35.053Z,7.25
2023-01-30T11:38:35.050Z,7.25
2023-01-30T11:39:35.353Z,7.3
2023-01-30T11:40:36.093Z,7.25
2023-01-30T11:41:35.014Z,7.25
2023-01-30T11:42:35.783Z,7.25
2023-01-30T11:43:35.163Z,7.25
2023-01-30T11:44:35.218Z,7.25
2023-01-30T11:45:36.011Z,7.25
2023-01-30T11:46:35.807Z,7.25
2023-01-30T11:47:35.693Z,7.25
2023-01-30T11:49:11.108Z,7.25
2023-01-30T11:49:48.600Z,7.25
2023-01-30T11:50:37.182Z,7.2
2023-01-30T11:51:35.544Z,7.25
2023-01-30T11:52:35.370Z,7.25
2023-01-30T11:53:35.050Z,7.25
2023-01-30T11:54:34.916Z,7.25
2023-01-30T11:55:35.878Z,7.25
2023-01-30T11:56:35.586Z,7.25
2023-01-30T11:57:35.286Z,7.25
2023-01-30T11:58:35.082Z,7.25
2023-01-30T11:59:36.617Z,7.25
2023-01-30T12:00:35.286Z,7.25
2023-01-30T12:01:35.607Z,7.25
2023-01-30T12:02:35.611Z,7.2
2023-01-30T12:03:35.759Z,7.2
2023-01-30T12:04:35.316Z,7.2
2023-01-30T12:05:36.597Z,7.2
2023-01-30T12:06:36.249Z,7.2
2023-01-30T12:07:35.601Z,7.25
2023-01-30T12:08:41.756Z,7.25
2023-01-30T12:09:34.914Z,7.25
2023-01-30T12:10:35.265Z,7.25
2023-01-30T12:11:36.562Z,7.25
2023-01-30T12:12:34.966Z,7.25
2023-01-30T12:13:35.272Z,7.25
2023-01-30T12:14:35.993Z,7.3
2023-01-30T12:15:35.910Z,7.3
2023-01-30T12:16:35.406Z,7.3
2023-01-30T12:17:36.275Z,7.3
2023-01-30T12:18:35.638Z,7.3
2023-01-30T12:19:35.393Z,7.3
2023-01-30T12:20:35.324Z,7.3
2023-01-30T12:21:35.935Z,7.3
2023-01-30T12:22:35.500Z,7.3
2023-01-30T12:23:36.135Z,7.3
2023-01-30T12:24:35.254Z,7.3
2023-01-30T12:25:34.000Z,7.25
2023-01-30T12:26:35.768Z,7.25
2023-01-30T12:27:34.953Z,7.25
2023-01-30T12:28:35.575Z,7.25
2023-01-30T12:29:35.081Z,7.25
2023-01-30T12:30:35.416Z,7.25
2023-01-30T12:31:35.183Z,7.25
2023-01-30T12:32:35.091Z,7.25
2023-01-30T12:33:35.228Z,7.25
2023-01-30T12:34:35.312Z,7.25
2023-01-30T12:35:35.305Z,7.25
2023-01-30T12:36:35.953Z,7.25
2023-01-30T12:37:35.535Z,7.2
2023-01-30T12:38:34.895Z,7.2
2023-01-30T12:39:35.909Z,7.25
2023-01-30T12:40:35.377Z,7.25
2023-01-30T12:41:36.235Z,7.25
2023-01-30T12:42:36.104Z,7.25
2023-01-30T12:43:35.678Z,7.25
2023-01-30T12:44:35.413Z,7.25
2023-01-30T12:45:35.899Z,7.25
2023-01-30T12:46:35.275Z,7.25
2023-01-30T12:47:34.396Z,7.25
2023-01-30T12:48:43.987Z,7.25
2023-01-30T12:49:34.931Z,7.25
2023-01-30T12:50:34.891Z,7.25
2023-01-30T12:51:35.014Z,7.25
2023-01-30T12:52:35.964Z,7.25
2023-01-30T12:53:34.918Z,7.25
2023-01-30T12:54:35.072Z,7.25
2023-01-30T12:55:35.858Z,7.25
2023-01-30T12:56:35.421Z,7.25
2023-01-30T12:57:35.460Z,7.25
2023-01-30T12:58:35.083Z,7.25
2023-01-30T12:59:35.481Z,7.25
2023-01-30T13:00:34.891Z,7.2
2023-01-30T13:01:35.914Z,7.16
2023-01-30T13:02:36.602Z,7.16
2023-01-30T13:03:35.596Z,7.16
2023-01-30T13:04:35.830Z,7.16
2023-01-30T13:05:35.481Z,7.16
2023-01-30T13:06:36.229Z,7.16
2023-01-30T13:07:35.958Z,7.2
2023-01-30T13:08:35.964Z,7.2
2023-01-30T13:10:34.930Z,7.25
2023-01-30T13:11:36.101Z,7.25
2023-01-30T13:12:35.309Z,7.3
2023-01-30T13:13:35.906Z,7.35
2023-01-30T13:14:36.582Z,7.4
2023-01-30T13:15:35.483Z,7.4
2023-01-30T13:16:35.750Z,7.35
2023-01-30T13:17:35.517Z,7.3
2023-01-30T13:18:35.721Z,7.3
2023-01-30T13:19:40.797Z,7.3
2023-01-30T13:20:35.630Z,7.25
2023-01-30T13:21:35.629Z,7.25
2023-01-30T13:22:35.516Z,7.3
2023-01-30T13:23:34.965Z,7.3
2023-01-30T13:24:36.034Z,7.3
2023-01-30T13:25:35.116Z,7.3
2023-01-30T13:26:35.452Z,7.3
2023-01-30T13:27:34.875Z,7.35
2023-01-30T13:28:35.396Z,7.35
2023-01-30T13:29:35.149Z,7.44
2023-01-30T13:30:34.929Z,7.49
2023-01-30T13:31:35.233Z,7.49
2023-01-30T13:32:35.713Z,7.49